Time;durP1;ratioP1;P1;durP2;ratioP2;P2;SDS_P1;SDS_P2;PMS_P1;PMS_P2;Temp;Humidity;BMP_temperature;BMP_pressure;BME280_temperature;BME280_humidity;BME280_pressure;Samples;Min_cycle;Max_cycle;Signal;HPM_P1;HPM_P2
2023/03/07 00:01:30;;;;;;;35.90;16.30;;;1.10;99.90;;;;;;4992322;28;20045;-79
2023/03/07 00:03:57;;;;;;;32.45;14.98;;;1.10;99.90;;;;;;4970452;28;20040;-81
2023/03/07 00:06:23;;;;;;;31.90;14.35;;;1.10;99.90;;;;;;4966509;28;20078;-80
2023/03/07 00:08:54;;;;;;;34.60;15.13;;;1.00;99.90;;;;;;4990815;28;20061;-81
2023/03/07 00:11:20;;;;;;;28.77;14.60;;;1.00;99.90;;;;;;4959532;28;20046;-81
2023/03/07 00:13:46;;;;;;;28.70;14.30;;;1.00;99.90;;;;;;4975146;28;20023;-77
2023/03/07 00:16:15;;;;;;;30.83;14.35;;;1.00;99.90;;;;;;4946742;28;20062;-80
2023/03/07 00:18:41;;;;;;;29.08;13.73;;;1.00;99.90;;;;;;4960057;28;20045;-81
2023/03/07 00:21:09;;;;;;;31.35;15.15;;;1.00;99.90;;;;;;4963870;28;20057;-80
2023/03/07 00:23:38;;;;;;;29.35;14.02;;;1.00;99.90;;;;;;4958616;28;20121;-82
2023/03/07 00:26:06;;;;;;;26.75;13.07;;;0.90;99.90;;;;;;4966762;28;20814;-79
2023/03/07 00:28:32;;;;;;;25.88;12.55;;;1.00;99.90;;;;;;4967870;28;20059;-81
2023/03/07 00:31:00;;;;;;;27.48;13.35;;;1.00;99.90;;;;;;4970544;28;20125;-82
2023/03/07 00:33:26;;;;;;;25.50;12.07;;;1.00;99.90;;;;;;4944808;28;20042;-81
2023/03/07 00:36:16;;;;;;;26.25;13.38;;;0.90;99.90;;;;;;4966777;28;20561;-80
2023/03/07 00:38:44;;;;;;;23.17;12.57;;;1.00;99.90;;;;;;4950322;28;20034;-81
2023/03/07 00:41:15;;;;;;;25.95;12.95;;;1.00;99.90;;;;;;4985806;28;20034;-80
2023/03/07 00:43:41;;;;;;;24.08;12.32;;;1.00;99.90;;;;;;4961960;28;20034;-81
2023/03/07 00:46:07;;;;;;;26.08;13.15;;;1.00;99.90;;;;;;4977041;28;20031;-82
2023/03/07 00:48:36;;;;;;;22.92;12.15;;;1.00;99.90;;;;;;4962618;28;20042;-79
2023/03/07 00:51:04;;;;;;;25.10;12.15;;;1.00;99.90;;;;;;4972819;28;20625;-82
2023/03/07 00:53:30;;;;;;;24.65;12.38;;;1.00;99.90;;;;;;4968913;28;20046;-80
2023/03/07 00:56:02;;;;;;;26.45;12.57;;;1.00;99.90;;;;;;4984033;28;20053;-80
2023/03/07 00:58:31;;;;;;;24.83;12.18;;;1.00;99.90;;;;;;4977891;28;20045;-81
2023/03/07 01:00:58;;;;;;;25.83;11.73;;;1.00;99.90;;;;;;4969191;28;20030;-80
2023/03/07 01:03:25;;;;;;;22.17;11.48;;;1.00;99.90;;;;;;4968332;28;20406;-80
2023/03/07 01:05:51;;;;;;;23.80;12.02;;;1.00;99.90;;;;;;4961896;28;20031;-80
2023/03/07 01:08:19;;;;;;;24.05;11.95;;;1.00;99.90;;;;;;4966712;28;20050;-80
2023/03/07 01:10:45;;;;;;;23.50;11.40;;;1.00;99.90;;;;;;4964778;28;20491;-79
2023/03/07 01:13:11;;;;;;;21.42;11.27;;;1.00;99.90;;;;;;4969942;28;20106;-79
2023/03/07 01:15:37;;;;;;;21.42;11.23;;;1.10;99.90;;;;;;4964964;28;20054;-79
2023/03/07 01:18:05;;;;;;;23.05;11.77;;;1.00;99.90;;;;;;4966098;28;20018;-79
2023/03/07 01:20:32;;;;;;;23.52;10.80;;;1.00;99.90;;;;;;4941835;28;20045;-79
2023/03/07 01:22:58;;;;;;;19.95;10.18;;;1.00;99.90;;;;;;4979187;28;20035;-80
2023/03/07 01:25:25;;;;;;;25.30;11.40;;;1.00;99.90;;;;;;4962961;28;20027;-79
2023/03/07 01:27:54;;;;;;;24.35;11.45;;;0.90;99.90;;;;;;4969743;28;20554;-78
2023/03/07 01:30:23;;;;;;;21.08;11.50;;;1.00;99.90;;;;;;4944294;28;20415;-79
2023/03/07 01:32:56;;;;;;;21.38;11.07;;;1.00;99.90;;;;;;4972468;28;20097;-79
2023/03/07 01:35:23;;;;;;;25.05;12.82;;;1.00;99.90;;;;;;4942693;28;20045;-79
2023/03/07 01:37:50;;;;;;;26.45;12.60;;;1.00;99.90;;;;;;4963884;28;20134;-79
2023/03/07 01:40:16;;;;;;;24.98;12.00;;;1.00;99.90;;;;;;4968206;28;20372;-79
2023/03/07 01:42:43;;;;;;;22.60;11.25;;;1.00;99.90;;;;;;4967508;28;20113;-80
2023/03/07 01:45:11;;;;;;;26.40;12.93;;;1.00;99.90;;;;;;4945361;28;20452;-81
2023/03/07 01:47:45;;;;;;;27.25;13.48;;;1.00;99.90;;;;;;4962457;28;20022;-79
2023/03/07 01:50:18;;;;;;;25.88;12.30;;;1.00;99.90;;;;;;4950024;28;20380;-81
2023/03/07 01:52:55;;;;;;;26.92;13.00;;;1.00;99.90;;;;;;4961798;28;20089;-81
2023/03/07 01:55:25;;;;;;;27.90;13.38;;;1.00;99.90;;;;;;4972107;28;20035;-80
2023/03/07 01:57:58;;;;;;;33.55;14.68;;;1.00;99.90;;;;;;4945843;28;20046;-79
2023/03/07 02:00:29;;;;;;;25.75;12.23;;;1.00;99.90;;;;;;4938560;28;20532;-78
2023/03/07 02:03:11;;;;;;;24.20;12.70;;;1.00;99.90;;;;;;4957452;28;20097;-81
2023/03/07 02:05:46;;;;;;;27.38;12.95;;;1.10;99.90;;;;;;4961995;28;20058;-79
2023/03/07 02:08:15;;;;;;;25.60;12.27;;;1.10;99.90;;;;;;4979045;28;20515;-79
2023/03/07 02:10:45;;;;;;;25.80;13.02;;;1.10;99.90;;;;;;4963817;28;20023;-79
2023/03/07 02:13:11;;;;;;;24.00;13.18;;;1.20;99.90;;;;;;4968953;28;20452;-79
2023/03/07 02:15:38;;;;;;;27.42;12.23;;;1.10;99.90;;;;;;4965750;28;20130;-79
2023/03/07 02:18:05;;;;;;;24.95;12.60;;;1.10;99.90;;;;;;4949799;28;20062;-79
2023/03/07 02:20:53;;;;;;;27.20;12.40;;;1.10;99.90;;;;;;4944441;28;20050;-80
2023/03/07 02:23:33;;;;;;;25.30;12.35;;;1.10;99.90;;;;;;4968996;28;20041;-78
2023/03/07 02:26:10;;;;;;;25.00;12.82;;;1.10;99.90;;;;;;4963893;28;20038;-79
2023/03/07 02:28:38;;;;;;;23.90;12.38;;;1.10;99.90;;;;;;4966937;28;20033;-80
2023/03/07 02:31:07;;;;;;;24.50;12.40;;;1.00;99.90;;;;;;4975152;28;20117;-79
2023/03/07 02:33:35;;;;;;;23.50;12.52;;;1.10;99.90;;;;;;4989891;28;20449;-78
2023/03/07 02:36:10;;;;;;;29.92;14.65;;;1.00;99.90;;;;;;4951083;28;20395;-79
2023/03/07 02:38:44;;;;;;;29.58;13.13;;;1.00;99.90;;;;;;4967091;28;20034;-79
2023/03/07 02:41:13;;;;;;;30.17;14.07;;;1.00;99.90;;;;;;4982551;28;20134;-80
2023/03/07 02:43:39;;;;;;;26.25;13.50;;;1.00;99.90;;;;;;4967658;28;20030;-79
2023/03/07 02:46:06;;;;;;;28.55;12.93;;;1.10;99.90;;;;;;4966995;28;20031;-79
2023/03/07 02:48:31;;;;;;;27.92;14.18;;;1.10;99.90;;;;;;4992304;28;20034;-79
2023/03/07 02:50:58;;;;;;;31.08;14.07;;;1.10;99.90;;;;;;4965666;28;20347;-79
2023/03/07 02:53:24;;;;;;;32.42;14.52;;;1.10;99.90;;;;;;4938756;28;20039;-79
2023/03/07 02:55:50;;;;;;;31.63;14.95;;;1.10;99.90;;;;;;4967177;28;20034;-79
2023/03/07 02:58:16;;;;;;;29.92;14.48;;;1.10;99.90;;;;;;4987196;28;20514;-79
2023/03/07 03:00:42;;;;;;;27.00;14.00;;;1.10;99.90;;;;;;4986269;28;20483;-79
2023/03/07 03:03:08;;;;;;;30.77;15.48;;;1.10;99.90;;;;;;4974600;28;20547;-79
2023/03/07 03:05:34;;;;;;;29.05;13.95;;;1.00;99.90;;;;;;4957252;28;20506;-79
2023/03/07 03:08:00;;;;;;;30.27;13.85;;;1.00;99.90;;;;;;4966935;28;20030;-79
2023/03/07 03:10:26;;;;;;;27.85;13.93;;;1.00;99.90;;;;;;4962690;28;20034;-80
2023/03/07 03:12:52;;;;;;;33.95;15.00;;;1.00;99.90;;;;;;4974848;28;20093;-79
2023/03/07 03:15:18;;;;;;;29.13;13.80;;;0.90;99.90;;;;;;4979715;28;20121;-80
2023/03/07 03:17:44;;;;;;;34.75;14.70;;;0.90;99.90;;;;;;4958303;28;20041;-79
2023/03/07 03:20:11;;;;;;;30.63;14.05;;;0.90;99.90;;;;;;4943278;28;20141;-80
2023/03/07 03:22:40;;;;;;;31.23;14.63;;;0.90;99.90;;;;;;4954592;28;20042;-80
2023/03/07 03:25:09;;;;;;;33.65;14.63;;;0.90;99.90;;;;;;4942487;28;21109;-80
2023/03/07 03:27:37;;;;;;;34.20;14.73;;;0.90;99.90;;;;;;4977785;28;20034;-79
2023/03/07 03:30:08;;;;;;;31.63;15.45;;;0.90;99.90;;;;;;4961004;28;20050;-80
2023/03/07 03:32:36;;;;;;;33.42;15.70;;;0.90;99.90;;;;;;4960272;28;20045;-80
2023/03/07 03:35:03;;;;;;;36.35;15.35;;;0.90;99.90;;;;;;4949559;28;20066;-79
2023/03/07 03:37:29;;;;;;;31.23;15.00;;;0.80;99.90;;;;;;4953396;28;20063;-79
2023/03/07 03:39:55;;;;;;;34.33;15.10;;;0.80;99.90;;;;;;4960084;28;20331;-80
2023/03/07 03:42:21;;;;;;;32.22;14.90;;;0.80;99.90;;;;;;4969942;28;20039;-79
2023/03/07 03:44:48;;;;;;;27.95;14.07;;;0.80;99.90;;;;;;4950512;28;20165;-79
2023/03/07 03:47:14;;;;;;;31.85;15.45;;;0.80;99.90;;;;;;4958466;28;20028;-80
2023/03/07 03:49:40;;;;;;;31.35;15.57;;;0.80;99.90;;;;;;4969488;28;20031;-80
2023/03/07 03:52:08;;;;;;;30.77;14.60;;;0.90;99.90;;;;;;4948454;28;20113;-80
2023/03/07 03:54:34;;;;;;;32.75;15.48;;;0.80;99.90;;;;;;4965920;28;20031;-78
2023/03/07 03:57:00;;;;;;;35.15;16.52;;;0.80;99.90;;;;;;4968083;28;20530;-80
2023/03/07 03:59:29;;;;;;;33.17;15.32;;;0.80;99.90;;;;;;4971823;28;20327;-79
2023/03/07 04:01:54;;;;;;;36.47;17.50;;;0.80;99.90;;;;;;4949551;28;20067;-79
2023/03/07 04:04:21;;;;;;;34.22;16.77;;;0.80;99.90;;;;;;4968196;28;20027;-80
2023/03/07 04:06:47;;;;;;;32.17;16.10;;;0.80;99.90;;;;;;4947356;28;20495;-80
2023/03/07 04:09:14;;;;;;;34.47;15.68;;;0.80;99.90;;;;;;4961890;28;20027;-79
2023/03/07 04:11:43;;;;;;;32.25;16.58;;;0.80;99.90;;;;;;4964785;28;20027;-78
2023/03/07 04:14:09;;;;;;;33.15;16.05;;;0.80;99.90;;;;;;4965879;28;20474;-79
2023/03/07 04:16:35;;;;;;;34.25;14.88;;;0.80;99.90;;;;;;4947167;28;20130;-78
2023/03/07 04:19:01;;;;;;;30.85;15.23;;;0.70;99.90;;;;;;4960115;28;20034;-80
2023/03/07 04:21:27;;;;;;;31.92;15.90;;;0.70;99.90;;;;;;4961512;28;20046;-80
2023/03/07 04:23:57;;;;;;;32.53;15.38;;;0.70;99.90;;;;;;4976696;28;20030;-79
2023/03/07 04:26:26;;;;;;;30.45;14.60;;;0.70;99.90;;;;;;4947277;28;20086;-78
2023/03/07 04:28:52;;;;;;;26.27;13.35;;;0.70;99.90;;;;;;4956885;28;20438;-77
2023/03/07 04:31:30;;;;;;;31.77;15.45;;;0.70;99.90;;;;;;4946135;28;20038;-78
2023/03/07 04:33:59;;;;;;;33.88;14.10;;;0.70;99.90;;;;;;4940088;28;20090;-79
2023/03/07 04:36:25;;;;;;;27.00;13.50;;;0.70;99.90;;;;;;4972393;28;20030;-80
2023/03/07 04:38:51;;;;;;;30.67;14.40;;;0.60;99.90;;;;;;4969711;28;20034;-80
2023/03/07 04:41:25;;;;;;;35.35;14.30;;;0.70;99.90;;;;;;4962664;28;20093;-79
2023/03/07 04:43:54;;;;;;;27.48;13.80;;;0.60;99.90;;;;;;4978241;28;20034;-79
2023/03/07 04:46:24;;;;;;;29.55;13.98;;;0.70;99.90;;;;;;4939678;28;20030;-78
2023/03/07 04:48:50;;;;;;;28.55;13.80;;;0.70;99.90;;;;;;4956706;28;20027;-80
2023/03/07 04:51:16;;;;;;;26.20;13.70;;;0.70;99.90;;;;;;4958193;28;20018;-80
2023/03/07 04:53:43;;;;;;;29.08;15.10;;;0.70;99.90;;;;;;4945267;28;20072;-80
2023/03/07 04:56:09;;;;;;;28.70;14.10;;;0.70;99.90;;;;;;4978075;28;20034;-80
2023/03/07 04:58:36;;;;;;;30.80;13.75;;;0.70;99.90;;;;;;4965629;28;20133;-80
2023/03/07 05:01:03;;;;;;;28.13;13.70;;;0.70;99.90;;;;;;4970876;28;20088;-79
2023/03/07 05:03:29;;;;;;;29.08;14.20;;;0.70;99.90;;;;;;4956225;28;20096;-80
2023/03/07 05:06:01;;;;;;;29.50;14.23;;;0.70;99.90;;;;;;4961342;28;20058;-81
2023/03/07 05:08:27;;;;;;;27.60;13.68;;;0.70;99.90;;;;;;4986749;28;20030;-79
2023/03/07 05:10:53;;;;;;;28.10;13.80;;;0.70;99.90;;;;;;4959253;28;20065;-78
2023/03/07 05:13:19;;;;;;;25.33;12.77;;;0.70;99.90;;;;;;4950088;28;20597;-81
2023/03/07 05:15:50;;;;;;;25.88;12.90;;;0.70;99.90;;;;;;4973756;28;20089;-79
2023/03/07 05:18:16;;;;;;;28.38;13.27;;;0.80;99.90;;;;;;4966816;28;20022;-81
2023/03/07 05:20:43;;;;;;;25.98;13.07;;;0.80;99.90;;;;;;4957710;28;20035;-81
2023/03/07 05:23:14;;;;;;;26.65;13.63;;;0.80;99.90;;;;;;4951687;29;20407;-79
2023/03/07 05:25:40;;;;;;;26.15;12.90;;;0.80;99.90;;;;;;4958011;28;20122;-79
2023/03/07 05:28:06;;;;;;;26.38;13.35;;;0.80;99.90;;;;;;4968314;28;20022;-79
2023/03/07 05:30:33;;;;;;;24.73;13.32;;;0.80;99.90;;;;;;4952109;28;20103;-78
2023/03/07 05:33:00;;;;;;;30.83;13.23;;;0.70;99.90;;;;;;4968579;28;20123;-79
2023/03/07 05:35:27;;;;;;;29.45;13.20;;;0.70;99.90;;;;;;4944110;28;20636;-79
2023/03/07 05:37:54;;;;;;;26.70;13.10;;;0.80;99.90;;;;;;4965155;28;20033;-82
2023/03/07 05:40:21;;;;;;;25.65;12.73;;;0.70;99.90;;;;;;4937630;28;20041;-80
2023/03/07 05:42:48;;;;;;;29.08;13.57;;;0.80;99.90;;;;;;4979371;28;20027;-80
2023/03/07 05:45:14;;;;;;;28.00;13.35;;;0.80;99.90;;;;;;4965358;28;20499;-78
2023/03/07 05:47:41;;;;;;;27.40;13.77;;;0.80;99.90;;;;;;4966470;28;20082;-80
2023/03/07 05:50:09;;;;;;;25.05;13.05;;;0.80;99.90;;;;;;4957277;28;20027;-80
2023/03/07 05:52:36;;;;;;;23.67;12.57;;;0.80;99.90;;;;;;4980017;28;20506;-81
2023/03/07 05:55:03;;;;;;;28.20;13.45;;;0.80;99.90;;;;;;4935113;28;20063;-79
2023/03/07 05:57:30;;;;;;;26.73;12.98;;;0.80;99.90;;;;;;4950010;28;20536;-78
2023/03/07 05:59:56;;;;;;;26.75;13.20;;;0.80;99.90;;;;;;4965925;28;20039;-81
2023/03/07 06:02:21;;;;;;;27.85;12.90;;;0.80;99.90;;;;;;4945587;28;20031;-81
2023/03/07 06:04:47;;;;;;;25.83;12.70;;;0.90;99.90;;;;;;4985793;28;20038;-80
2023/03/07 06:07:13;;;;;;;25.83;12.27;;;0.90;99.90;;;;;;4956839;28;20023;-80
2023/03/07 06:09:39;;;;;;;26.52;11.68;;;0.90;99.90;;;;;;4962564;28;20034;-80
2023/03/07 06:12:05;;;;;;;25.25;12.45;;;0.90;99.90;;;;;;4968614;28;20459;-79
2023/03/07 06:14:31;;;;;;;25.35;13.30;;;0.90;99.90;;;;;;4989878;28;20038;-79
2023/03/07 06:16:57;;;;;;;26.88;13.45;;;0.90;99.90;;;;;;4968991;28;20030;-79
2023/03/07 06:19:23;;;;;;;27.77;12.95;;;0.90;99.90;;;;;;4976296;28;20031;-79
2023/03/07 06:21:50;;;;;;;25.10;12.52;;;0.90;99.90;;;;;;4954464;28;20030;-80
2023/03/07 06:24:17;;;;;;;25.08;11.70;;;0.90;99.90;;;;;;4972020;28;20069;-79
2023/03/07 06:26:43;;;;;;;23.10;12.13;;;1.00;99.90;;;;;;4947179;28;20030;-81
2023/03/07 06:29:09;;;;;;;24.17;11.75;;;1.00;99.90;;;;;;4961894;28;20399;-80
2023/03/07 06:31:35;;;;;;;25.45;11.45;;;0.90;99.90;;;;;;4942060;28;20038;-80
2023/03/07 06:34:04;;;;;;;25.58;12.60;;;1.00;99.90;;;;;;4938271;28;20027;-79
2023/03/07 06:36:30;;;;;;;25.08;12.15;;;1.00;99.90;;;;;;4956978;28;20065;-79
2023/03/07 06:38:59;;;;;;;23.20;11.57;;;1.00;99.90;;;;;;4964407;28;20035;-80
2023/03/07 06:41:25;;;;;;;19.50;11.10;;;1.00;99.90;;;;;;4959689;28;20049;-79
2023/03/07 06:43:53;;;;;;;23.45;11.73;;;1.00;99.90;;;;;;4966499;28;20459;-81
2023/03/07 06:46:24;;;;;;;21.40;11.55;;;1.00;99.90;;;;;;4943006;28;20454;-81
2023/03/07 06:48:50;;;;;;;26.13;12.25;;;1.00;99.90;;;;;;4931098;28;20113;-80
2023/03/07 06:51:18;;;;;;;23.60;11.60;;;1.10;99.90;;;;;;4950590;28;20114;-80
2023/03/07 06:53:46;;;;;;;22.23;10.45;;;1.10;99.90;;;;;;4948050;28;20046;-81
2023/03/07 06:56:12;;;;;;;26.05;12.45;;;1.00;99.90;;;;;;4943794;28;20034;-80
2023/03/07 06:58:39;;;;;;;21.42;11.50;;;1.10;99.90;;;;;;4943533;28;20142;-79
2023/03/07 07:01:06;;;;;;;22.95;11.40;;;1.10;99.90;;;;;;4957834;28;20054;-80
2023/03/07 07:03:33;;;;;;;23.20;12.75;;;1.10;99.90;;;;;;4948203;28;20039;-81
2023/03/07 07:06:01;;;;;;;21.17;10.20;;;1.10;99.90;;;;;;4930425;28;20058;-80
2023/03/07 07:08:29;;;;;;;21.00;10.82;;;1.10;99.90;;;;;;4966968;28;20123;-81
2023/03/07 07:10:58;;;;;;;23.52;11.43;;;1.10;99.90;;;;;;4962246;28;20027;-81
2023/03/07 07:13:24;;;;;;;19.83;11.32;;;1.10;99.90;;;;;;4979844;28;20030;-79
2023/03/07 07:15:51;;;;;;;21.73;11.13;;;1.10;99.90;;;;;;4957546;28;20118;-79
2023/03/07 07:18:21;;;;;;;23.40;11.60;;;1.10;99.90;;;;;;4973544;28;20122;-79
2023/03/07 07:20:59;;;;;;;21.92;11.63;;;1.10;99.90;;;;;;4977613;28;20030;-78
2023/03/07 07:23:27;;;;;;;21.02;11.65;;;1.20;99.90;;;;;;4979328;28;20035;-80
2023/03/07 07:25:54;;;;;;;20.27;11.52;;;1.10;99.90;;;;;;4966568;28;20035;-80
2023/03/07 07:28:19;;;;;;;22.13;11.45;;;1.20;99.90;;;;;;4961117;28;20030;-79
2023/03/07 07:30:45;;;;;;;24.70;12.20;;;1.20;99.90;;;;;;4976357;28;20379;-80
2023/03/07 07:33:14;;;;;;;22.13;11.23;;;1.20;99.90;;;;;;4964464;28;20030;-80
2023/03/07 07:35:43;;;;;;;22.40;11.82;;;1.20;99.90;;;;;;4977402;28;20034;-80
2023/03/07 07:38:13;;;;;;;22.10;12.10;;;1.20;99.90;;;;;;4961343;28;20043;-80
2023/03/07 07:40:44;;;;;;;23.75;11.93;;;1.20;99.90;;;;;;4974470;28;20034;-78
2023/03/07 07:43:15;;;;;;;20.08;11.20;;;1.30;99.90;;;;;;4971325;28;20042;-80
2023/03/07 07:45:57;;;;;;;22.67;12.05;;;1.40;99.90;;;;;;4961370;28;20039;-80
2023/03/07 07:48:30;;;;;;;23.20;11.82;;;1.40;99.90;;;;;;4950936;28;20038;-79
2023/03/07 07:51:01;;;;;;;22.48;11.52;;;1.30;99.90;;;;;;4958739;28;20054;-80
2023/03/07 07:53:29;;;;;;;23.63;12.07;;;1.40;99.90;;;;;;4959642;28;20085;-80
2023/03/07 07:55:56;;;;;;;23.83;12.80;;;1.40;99.90;;;;;;4962040;28;20023;-79
2023/03/07 07:58:28;;;;;;;26.42;12.07;;;1.40;99.90;;;;;;4973278;28;20073;-81
2023/03/07 08:00:54;;;;;;;23.25;11.60;;;1.50;99.90;;;;;;4977350;28;20459;-80
2023/03/07 08:03:20;;;;;;;24.27;12.30;;;1.50;99.90;;;;;;4966655;28;20042;-81
2023/03/07 08:05:47;;;;;;;23.77;12.38;;;1.50;99.90;;;;;;4957178;28;20042;-80
2023/03/07 08:08:19;;;;;;;22.23;12.32;;;1.50;99.90;;;;;;4970870;28;20022;-83
2023/03/07 08:10:45;;;;;;;22.90;11.93;;;1.50;99.90;;;;;;4942580;28;20478;-83
2023/03/07 08:13:12;;;;;;;22.83;11.75;;;1.50;99.90;;;;;;4947275;28;20035;-82
2023/03/07 08:15:39;;;;;;;21.42;11.50;;;1.50;99.90;;;;;;4954032;28;20045;-80
2023/03/07 08:18:04;;;;;;;24.10;12.10;;;1.60;99.90;;;;;;4944645;28;20046;-81
2023/03/07 08:20:30;;;;;;;21.73;12.07;;;1.60;99.90;;;;;;4944966;28;20037;-82
2023/03/07 08:22:56;;;;;;;21.70;10.45;;;1.60;99.90;;;;;;4969838;28;21356;-82
2023/03/07 08:25:23;;;;;;;25.10;13.00;;;1.60;99.90;;;;;;4964744;28;20069;-82
2023/03/07 08:27:53;;;;;;;23.75;11.93;;;1.70;99.90;;;;;;4969662;28;20019;-82
2023/03/07 08:30:23;;;;;;;23.00;11.55;;;1.70;99.90;;;;;;4951984;28;20037;-82
2023/03/07 08:32:50;;;;;;;26.45;13.60;;;1.70;99.90;;;;;;4966748;28;20034;-83
2023/03/07 08:35:16;;;;;;;22.05;11.63;;;1.80;99.90;;;;;;4962132;28;20034;-83
2023/03/07 08:37:42;;;;;;;20.20;11.48;;;1.80;99.90;;;;;;4956243;28;20030;-81
2023/03/07 08:40:09;;;;;;;21.80;11.75;;;1.90;99.90;;;;;;4942303;28;20031;-83
2023/03/07 08:42:34;;;;;;;20.40;11.55;;;1.90;99.90;;;;;;4974319;28;20035;-80
2023/03/07 08:45:00;;;;;;;20.52;11.40;;;1.90;99.90;;;;;;4956522;28;20521;-82
2023/03/07 08:47:26;;;;;;;22.80;11.63;;;2.00;99.90;;;;;;4965618;28;20054;-83
2023/03/07 08:49:52;;;;;;;20.83;11.38;;;2.00;99.90;;;;;;4945310;28;20122;-83
2023/03/07 08:52:18;;;;;;;23.63;11.55;;;2.00;99.90;;;;;;4950617;28;20117;-84
2023/03/07 08:54:43;;;;;;;26.27;12.02;;;2.00;99.90;;;;;;4965401;28;20042;-82
2023/03/07 08:57:09;;;;;;;22.77;12.48;;;2.00;99.90;;;;;;4947863;28;20031;-81
2023/03/07 08:59:35;;;;;;;22.55;12.02;;;2.10;99.90;;;;;;4955182;28;20122;-81
2023/03/07 09:02:00;;;;;;;22.08;12.15;;;2.10;99.90;;;;;;4958014;28;20027;-82
2023/03/07 09:04:26;;;;;;;22.52;11.73;;;2.20;99.90;;;;;;4963551;28;20658;-82
2023/03/07 09:06:52;;;;;;;22.10;12.70;;;2.20;99.90;;;;;;4950079;28;20042;-82
2023/03/07 09:09:18;;;;;;;25.50;12.75;;;2.30;99.90;;;;;;4951402;28;20041;-82
2023/03/07 09:11:44;;;;;;;22.25;12.23;;;2.40;99.90;;;;;;4962741;28;20035;-80
2023/03/07 09:14:10;;;;;;;23.13;12.50;;;2.40;99.90;;;;;;4944933;28;20125;-81
2023/03/07 09:16:36;;;;;;;26.92;13.48;;;2.50;99.90;;;;;;4949268;28;20311;-82
2023/03/07 09:19:02;;;;;;;21.27;11.88;;;2.60;99.90;;;;;;4960925;28;20047;-79
2023/03/07 09:21:28;;;;;;;20.90;11.63;;;2.70;99.90;;;;;;4927718;28;20035;-82
2023/03/07 09:23:54;;;;;;;23.25;12.02;;;2.70;99.90;;;;;;4961896;28;20041;-78
2023/03/07 09:26:20;;;;;;;20.85;11.02;;;2.90;99.90;;;;;;4941352;28;20653;-81
2023/03/07 09:28:45;;;;;;;21.92;11.75;;;3.00;99.90;;;;;;4938961;28;20026;-82
2023/03/07 09:31:14;;;;;;;22.15;11.95;;;3.00;99.90;;;;;;4976213;28;20059;-81
2023/03/07 09:33:40;;;;;;;19.13;11.18;;;3.10;99.90;;;;;;4964067;28;20113;-83
2023/03/07 09:36:08;;;;;;;21.67;12.00;;;3.20;99.90;;;;;;4962595;28;20031;-80
2023/03/07 09:38:34;;;;;;;18.70;10.52;;;3.10;99.90;;;;;;4961519;28;20043;-81
2023/03/07 09:41:13;;;;;;;18.75;11.35;;;3.10;99.90;;;;;;4947927;28;20121;-82
2023/03/07 09:43:49;;;;;;;18.23;9.77;;;3.20;99.90;;;;;;4958354;28;20038;-81
2023/03/07 09:47:09;;;;;;;23.23;11.57;;;3.20;99.90;;;;;;4960465;28;20043;-80
2023/03/07 09:49:44;;;;;;;21.45;10.57;;;3.30;99.90;;;;;;4943320;28;20476;-81
2023/03/07 09:52:15;;;;;;;18.38;10.60;;;3.30;99.90;;;;;;4940383;28;20046;-81
2023/03/07 09:55:20;;;;;;;20.02;11.15;;;3.40;99.90;;;;;;4959523;28;21330;-82
2023/03/07 09:57:57;;;;;;;20.60;10.48;;;3.40;99.90;;;;;;4955759;28;20436;-80
2023/03/07 10:00:56;;;;;;;17.15;10.23;;;3.40;99.90;;;;;;4961694;28;20039;-81
2023/03/07 10:03:32;;;;;;;19.38;10.73;;;3.50;99.90;;;;;;4965765;28;20687;-79
2023/03/07 10:06:18;;;;;;;;;;;3.60;99.90;;;;;;4976092;28;20395;-79
2023/03/07 10:08:44;;;;;;;18.00;10.35;;;3.70;99.90;;;;;;4959526;28;20049;-79
2023/03/07 10:11:27;;;;;;;21.00;11.48;;;3.70;99.90;;;;;;4956427;28;20066;-80
2023/03/07 10:14:26;;;;;;;18.17;9.80;;;3.70;99.90;;;;;;4955034;28;20054;-79
2023/03/07 10:17:23;;;;;;;20.85;10.95;;;3.80;99.90;;;;;;4963441;28;20051;-80
2023/03/07 10:19:51;;;;;;;17.65;9.60;;;3.80;99.90;;;;;;4979193;28;20089;-77
2023/03/07 10:22:21;;;;;;;16.15;9.00;;;3.70;99.90;;;;;;4985527;28;20046;-78
2023/03/07 10:25:05;;;;;;;18.75;10.05;;;3.70;99.90;;;;;;4955414;28;20040;-80
2023/03/07 10:27:32;;;;;;;18.42;8.93;;;3.70;99.90;;;;;;4979365;28;20113;-79
2023/03/07 10:30:00;;;;;;;19.58;10.18;;;3.80;99.90;;;;;;4985216;28;20077;-80
2023/03/07 10:32:43;;;;;;;17.23;8.70;;;3.90;99.90;;;;;;4977312;28;20027;-81
2023/03/07 10:35:19;;;;;;;15.20;8.77;;;4.00;99.90;;;;;;4959643;28;20042;-81
2023/03/07 10:37:54;;;;;;;19.00;10.93;;;4.10;99.90;;;;;;4984150;28;20138;-81
2023/03/07 10:40:24;;;;;;;16.50;8.77;;;4.20;99.90;;;;;;4965941;28;20073;-81
2023/03/07 10:42:52;;;;;;;14.48;7.85;;;4.40;99.90;;;;;;4961900;28;20038;-80
2023/03/07 10:45:18;;;;;;;14.60;8.63;;;4.40;99.90;;;;;;4947939;28;20455;-78
2023/03/07 10:47:44;;;;;;;14.38;8.43;;;4.60;99.90;;;;;;4968753;28;20435;-81
2023/03/07 10:50:28;;;;;;;14.23;8.57;;;4.80;99.90;;;;;;4965781;28;20057;-79
2023/03/07 10:52:59;;;;;;;14.77;8.23;;;5.10;99.90;;;;;;4964277;28;20037;-79
2023/03/07 10:55:45;;;;;;;15.70;8.23;;;5.40;99.90;;;;;;4960997;28;20463;-79
2023/03/07 10:58:20;;;;;;;12.82;7.55;;;5.60;99.90;;;;;;4963605;28;20027;-79
2023/03/07 11:01:19;;;;;;;12.07;7.82;;;5.60;99.90;;;;;;4983027;28;20026;-78
2023/03/07 11:03:46;;;;;;;11.57;7.28;;;5.80;99.90;;;;;;4979176;28;20047;-78
2023/03/07 11:06:32;;;;;;;15.07;7.97;;;5.90;99.90;;;;;;4956381;28;20045;-80
2023/03/07 11:09:08;;;;;;;;;;;6.00;99.90;;;;;;4985545;28;20022;-79
2023/03/07 11:11:35;;;;;;;13.75;7.40;;;6.00;99.90;;;;;;4963490;28;19942;-79
2023/03/07 11:14:08;;;;;;;10.63;6.57;;;6.00;99.90;;;;;;4951240;28;20027;-78
2023/03/07 11:16:47;;;;;;;13.15;7.28;;;6.10;99.90;;;;;;4981611;28;20042;-79
2023/03/07 11:19:31;;;;;;;12.55;7.10;;;6.10;99.90;;;;;;4980734;28;20038;-78
2023/03/07 11:21:59;;;;;;;13.50;7.35;;;6.30;99.90;;;;;;4958952;28;20049;-80
2023/03/07 11:24:28;;;;;;;10.40;6.53;;;6.30;99.90;;;;;;4949122;28;20085;-78
2023/03/07 11:26:58;;;;;;;10.20;6.15;;;6.40;99.90;;;;;;4957039;28;20038;-78
2023/03/07 11:29:27;;;;;;;10.75;6.25;;;6.40;99.90;;;;;;4959176;28;20027;-80
2023/03/07 11:32:12;;;;;;;9.38;5.80;;;6.40;99.90;;;;;;4981528;28;20029;-81
2023/03/07 11:35:02;;;;;;;10.32;6.47;;;6.40;99.90;;;;;;4981401;28;20015;-79
2023/03/07 11:37:42;;;;;;;8.93;5.57;;;6.50;99.90;;;;;;4978238;28;20025;-80
2023/03/07 11:40:42;;;;;;;8.65;5.63;;;6.40;99.90;;;;;;4984643;28;20030;-79
2023/03/07 11:43:21;;;;;;;11.05;5.10;;;6.30;99.90;;;;;;4981833;28;20030;-79
2023/03/07 11:45:55;;;;;;;10.43;6.22;;;6.10;99.90;;;;;;4959538;28;20031;-78
2023/03/07 11:48:30;;;;;;;8.18;5.72;;;6.10;99.90;;;;;;4965679;28;20034;-79
2023/03/07 11:50:56;;;;;;;9.88;5.68;;;6.10;99.90;;;;;;4980065;28;20049;-79
2023/03/07 11:53:58;;;;;;;8.73;5.57;;;6.20;99.90;;;;;;4968441;28;20034;-79
2023/03/07 11:56:31;;;;;;;8.52;5.20;;;6.20;99.90;;;;;;4967440;28;20046;-78
2023/03/07 11:59:18;;;;;;;8.05;5.20;;;6.20;99.90;;;;;;4989531;28;20030;-79
2023/03/07 12:01:55;;;;;;;8.10;5.60;;;6.30;99.90;;;;;;4983163;28;20111;-78
2023/03/07 12:04:48;;;;;;;7.50;4.90;;;6.30;99.90;;;;;;4981733;28;20041;-77
2023/03/07 12:07:38;;;;;;;9.18;5.00;;;6.30;99.90;;;;;;4968728;28;20106;-79
2023/03/07 12:10:25;;;;;;;10.07;5.25;;;6.20;99.90;;;;;;4988344;28;20029;-79
2023/03/07 12:13:04;;;;;;;8.07;4.68;;;6.20;99.90;;;;;;4988524;28;20023;-78
2023/03/07 12:15:40;;;;;;;8.23;4.47;;;6.10;99.90;;;;;;4985220;28;20038;-78
2023/03/07 12:18:23;;;;;;;5.68;4.50;;;5.90;99.90;;;;;;4975747;28;20045;-78
2023/03/07 12:21:06;;;;;;;8.60;5.32;;;5.80;99.90;;;;;;4968664;28;20924;-79
2023/03/07 12:23:42;;;;;;;7.40;5.18;;;5.80;99.90;;;;;;4951452;28;20041;-80
2023/03/07 12:26:25;;;;;;;8.60;4.43;;;5.70;99.90;;;;;;4962117;28;20037;-80
2023/03/07 12:28:57;;;;;;;7.75;4.43;;;5.70;99.90;;;;;;4981187;28;20033;-82
2023/03/07 12:31:31;;;;;;;7.20;4.35;;;5.60;99.90;;;;;;4961676;28;20399;-80
2023/03/07 12:34:12;;;;;;;7.40;4.93;;;5.50;99.90;;;;;;4980464;28;20054;-80
2023/03/07 12:37:20;;;;;;;7.93;5.13;;;5.40;99.90;;;;;;4962382;28;20502;-78
2023/03/07 12:39:51;;;;;;;8.40;5.10;;;5.40;99.90;;;;;;4975536;28;20043;-80
2023/03/07 12:42:34;;;;;;;8.82;4.70;;;5.40;99.90;;;;;;4978399;28;20032;-80
2023/03/07 12:45:15;;;;;;;7.57;4.65;;;5.40;99.90;;;;;;4978096;28;21332;-79
2023/03/07 12:47:52;;;;;;;6.50;4.22;;;5.40;99.90;;;;;;4985745;28;20403;-80
2023/03/07 12:50:36;;;;;;;7.22;4.68;;;5.50;99.90;;;;;;4977520;28;20031;-79
2023/03/07 12:53:09;;;;;;;6.88;4.43;;;5.40;99.90;;;;;;4986217;28;20027;-80
2023/03/07 12:55:48;;;;;;;7.45;4.10;;;5.30;99.90;;;;;;4968779;28;20031;-79
2023/03/07 12:58:23;;;;;;;7.32;4.63;;;5.20;99.90;;;;;;4984216;28;20034;-80